Impacts TAF Board
For situational awareness. Not to be used for flight planning purposes.
IDs:

KMEM - Memphis Intl, TN, US

Issued at 0656 UTC 20 Oct 2018
Updated at 0724 UTC 20 Oct 2018
Potential Impact None Slight Moderate High
Time0654Z 20/08Z 20/09Z 20/10Z 20/11Z 20/12Z 20/13Z 20/14Z 20/15Z 20/16Z 20/17Z 20/18Z 20/19Z 20/20Z>>
Type OBS PRVL PRVL PRVL PRVL PRVL PRVL PRVL PRVL PRVL PRVL PRVL PRVL PRVL
VIS 5 5 5 5 >6 >6 >6 >6 >6 >6 >6 >6 >6 >6
CIG 6 8 8 8 20 20 20 -- -- -- -- -- -- --
Cover OVC OVC OVC OVC BKN BKN BKN SCT SCT SKC SKC SKC SKC SKC
FltCat IFR IFR IFR IFR MVFR MVFR MVFR VFR VFR VFR VFR VFR VFR VFR
WX -RA BR -RA BR -RA BR -RA BR -- -- -- -- -- -- -- -- -- --
WDir 310 310 310 310 320 320 320 330 330 340 340 340 340 340
WSpd 5 4 4 4 6 6 6 8 8 10 10 10 10 10
WGst -- -- -- -- -- -- -- -- -- 17 17 17 17 17
Raw TAF
KMEM 200656Z 2007/2112 31004KT 5SM -RA BR BKN008 OVC018
  FM201100 32006KT P6SM BKN020
  FM201400 33008KT P6SM SCT025
  FM201600 34010G17KT P6SM SKC
  FM210000 36009KT P6SM SKC


Raw METAR
KMEM 200654Z 31005KT 5SM -RA BR BKN006 OVC010 13/13 A3011 RMK AO2 SLP193 P0008 T01330133
KMEM 200647Z 31004KT 4SM -RA BR BKN006 BKN012 OVC019 13/13 A3011 RMK AO2 P0008 T01330133
KMEM 200641Z 30004KT 3SM RA BR BKN004 BKN012 OVC019 13/13 A3011 RMK AO2 P0006 T01330133
KMEM 200635Z 30004KT 2 1/2SM +RA BR SCT007 BKN012 OVC019 13/13 A3011 RMK AO2 P0004 T01330133
KMEM 200628Z 31004KT 5SM RA BR SCT007 SCT012 OVC019 13/13 A3011 RMK AO2 P0000 T01330133
KMEM 200554Z 33007KT 5SM -RA BR OVC006 14/13 A3011 RMK AO2 CIG 005V011 SLP195 P0002 60014 T01390133 10189 20139 402170094 55002
KMEM 200540Z 32007KT 5SM -RA BR BKN006 OVC023 14/13 A3012 RMK AO2 CIG 005V010 P0002 T01390133
KMEM 200454Z 35004KT 7SM -RA FEW005 BKN022 OVC100 14/14 A3011 RMK AO2 SLP192 P0002 T01390139

METAR Board
Radar Display
Forecast Discussion
For situational awareness. Not to be used for flight planning purposes.